createdAt,value
2019-03-09T00:00:51.412Z,1.20
2019-03-09T00:05:56.124Z,1.00
2019-03-09T00:11:01.371Z,1.00
2019-03-09T00:16:05.788Z,0.90
2019-03-09T00:21:10.764Z,0.90
2019-03-09T00:26:20.155Z,1.10
2019-03-09T00:31:31.003Z,1.10
2019-03-09T00:36:36.036Z,1.00
2019-03-09T00:41:41.148Z,1.13
2019-03-09T00:46:46.452Z,0.83
2019-03-09T00:51:51.012Z,0.97
2019-03-09T00:56:55.669Z,0.97
2019-03-09T01:02:00.197Z,1.10
2019-03-09T01:07:08.419Z,0.93
2019-03-09T01:12:13.045Z,0.80
2019-03-09T01:17:21.529Z,0.80
2019-03-09T01:22:26.732Z,0.80
2019-03-09T01:27:31.705Z,0.73
2019-03-09T01:32:37.064Z,0.75
2019-03-09T01:37:42.195Z,0.62
2019-03-09T01:42:46.768Z,1.20
2019-03-09T01:47:51.379Z,0.90
2019-03-09T01:52:56.503Z,0.80
2019-03-09T01:58:03.614Z,0.60
2019-03-09T02:03:08.120Z,0.87
2019-03-09T02:08:12.799Z,0.80
2019-03-09T02:13:18.244Z,0.70
2019-03-09T02:18:23.233Z,0.70
2019-03-09T02:23:27.806Z,1.00
2019-03-09T02:28:34.327Z,0.87
2019-03-09T02:33:39.245Z,1.00
2019-03-09T02:39:05.981Z,0.70
2019-03-09T02:44:13.191Z,0.63
2019-03-09T02:49:18.610Z,0.67
2019-03-09T02:54:23.679Z,0.60
2019-03-09T02:59:28.811Z,0.60
2019-03-09T03:04:33.761Z,0.73
2019-03-09T03:09:39.039Z,0.90
2019-03-09T03:14:44.083Z,0.60
2019-03-09T03:19:51.130Z,0.67
2019-03-09T03:24:55.962Z,0.80
2019-03-09T03:30:00.713Z,0.80
2019-03-09T03:35:06.902Z,0.70
2019-03-09T03:40:11.742Z,0.70
2019-03-09T03:45:16.271Z,0.72
2019-03-09T03:50:20.784Z,0.70
2019-03-09T03:55:26.093Z,0.70
2019-03-09T04:00:31.092Z,0.77
2019-03-09T04:05:36.815Z,0.90
2019-03-09T04:10:47.614Z,0.70
2019-03-09T04:15:52.157Z,0.57
2019-03-09T04:20:57.330Z,0.60
2019-03-09T04:26:02.109Z,0.60
2019-03-09T04:31:06.698Z,0.70
2019-03-09T04:36:11.076Z,0.62
2019-03-09T04:41:15.878Z,0.50
2019-03-09T04:46:20.453Z,0.47
2019-03-09T04:51:28.154Z,0.73
2019-03-09T04:56:33.367Z,0.60
2019-03-09T05:01:38.204Z,0.40
2019-03-09T05:06:44.880Z,0.63
2019-03-09T05:11:49.631Z,0.60
2019-03-09T05:16:54.692Z,0.47
2019-03-09T05:21:59.895Z,0.50
2019-03-09T05:27:05.635Z,0.67
2019-03-09T05:32:10.278Z,0.50
2019-03-09T05:37:14.639Z,0.50
2019-03-09T05:42:20.778Z,0.60
2019-03-09T05:47:26.251Z,0.80
2019-03-09T05:52:35.037Z,0.70
2019-03-09T05:57:40.708Z,0.80
2019-03-09T06:02:46.225Z,0.60
2019-03-09T06:07:51.308Z,0.50
2019-03-09T06:12:56.245Z,1.00
2019-03-09T06:18:02.158Z,0.60
2019-03-09T06:23:06.697Z,0.50
2019-03-09T06:28:12.691Z,0.50
2019-03-09T06:33:32.203Z,0.50
2019-03-09T06:38:42.080Z,0.70
2019-03-09T06:43:47.854Z,0.50
2019-03-09T06:48:53.027Z,0.53
2019-03-09T06:53:58.210Z,0.50
2019-03-09T06:59:03.324Z,0.57
2019-03-09T07:04:12.609Z,0.40
2019-03-09T07:09:17.842Z,0.70
2019-03-09T07:15:18.679Z,0.60
2019-03-09T07:20:23.300Z,0.40
2019-03-09T07:25:28.108Z,0.40
2019-03-09T07:30:34.079Z,0.50
2019-03-09T07:35:39.008Z,0.40
2019-03-09T07:40:44.195Z,0.40
2019-03-09T07:45:49.100Z,0.50
2019-03-09T07:50:54.594Z,0.40
2019-03-09T07:56:00.015Z,0.40
2019-03-09T08:01:06.630Z,0.30
2019-03-09T08:06:11.631Z,0.50
2019-03-09T08:11:18.875Z,0.60
2019-03-09T08:16:23.884Z,0.30
2019-03-09T08:21:28.821Z,0.50
2019-03-09T08:26:34.432Z,0.47
2019-03-09T08:31:39.699Z,0.40
2019-03-09T08:36:44.218Z,0.20
2019-03-09T08:41:49.654Z,0.50
2019-03-09T08:46:54.455Z,0.40
2019-03-09T08:51:59.555Z,0.30
2019-03-09T08:57:04.642Z,0.33
2019-03-09T09:02:13.154Z,0.30
2019-03-09T09:07:18.090Z,0.20
2019-03-09T09:12:23.774Z,0.30
2019-03-09T09:17:29.408Z,0.30
2019-03-09T09:22:35.456Z,0.20
2019-03-09T09:27:41.969Z,0.30
2019-03-09T09:32:46.606Z,0.30
2019-03-09T09:37:54.076Z,0.20
2019-03-09T09:43:00.105Z,0.30
2019-03-09T09:48:05.203Z,0.20
2019-03-09T09:53:10.486Z,0.30
2019-03-09T09:58:18.060Z,0.30
2019-03-09T10:03:22.948Z,0.30
2019-03-09T10:08:28.075Z,0.27
2019-03-09T10:13:33.197Z,0.30
2019-03-09T10:18:39.511Z,0.40
2019-03-09T10:23:44.921Z,0.17
2019-03-09T10:28:50.120Z,0.30
2019-03-09T10:33:54.865Z,0.40
2019-03-09T10:39:00.501Z,0.33
2019-03-09T10:44:07.864Z,0.30
2019-03-09T10:49:14.047Z,0.23
2019-03-09T11:16:16.235Z,0.30
2019-03-09T11:21:23.396Z,0.30
2019-03-09T11:26:29.072Z,0.20
2019-03-09T11:31:33.927Z,0.20
2019-03-09T11:36:38.430Z,0.33
2019-03-09T11:41:46.911Z,0.20
2019-03-09T11:46:52.074Z,0.30
2019-03-09T11:51:56.726Z,0.30
2019-03-09T11:57:01.262Z,0.30
2019-03-09T12:02:05.878Z,0.30
2019-03-09T12:07:12.224Z,0.30
2019-03-09T12:12:17.427Z,0.20
2019-03-09T12:17:22.726Z,0.27
2019-03-09T12:22:27.627Z,0.37
2019-03-09T12:27:32.557Z,0.30
2019-03-09T12:32:37.897Z,0.30
2019-03-09T12:37:46.557Z,0.40
2019-03-09T12:42:51.615Z,0.53
2019-03-09T12:47:56.725Z,0.40
2019-03-09T12:53:01.606Z,0.30
2019-03-09T12:58:06.259Z,0.57
2019-03-09T13:03:11.858Z,0.30
2019-03-09T13:08:16.612Z,0.30
2019-03-09T13:13:21.894Z,0.40
2019-03-09T13:18:26.981Z,0.30
2019-03-09T13:23:31.718Z,0.30
2019-03-09T13:28:36.443Z,0.30
2019-03-09T13:33:41.805Z,0.40
2019-03-09T13:38:46.605Z,0.30
2019-03-09T13:43:51.678Z,0.40
2019-03-09T13:48:55.981Z,0.30
2019-03-09T13:54:01.697Z,0.50
2019-03-09T13:59:06.862Z,0.40
2019-03-09T14:04:13.238Z,0.43
2019-03-09T14:09:22.297Z,0.30
2019-03-09T14:14:26.740Z,0.30
2019-03-09T14:19:31.854Z,0.30
2019-03-09T14:24:36.933Z,0.50
2019-03-09T14:29:43.335Z,0.30
2019-03-09T14:34:48.030Z,0.40
2019-03-09T14:39:54.438Z,0.30
2019-03-09T14:44:59.515Z,0.33
2019-03-09T14:50:04.074Z,0.40
2019-03-09T14:55:10.337Z,0.30
2019-03-09T15:00:17.519Z,0.40
2019-03-09T15:05:22.560Z,0.30
2019-03-09T15:10:27.387Z,0.40
2019-03-09T15:15:31.773Z,0.60
2019-03-09T15:20:36.510Z,0.50
2019-03-09T15:25:41.638Z,0.20
2019-03-09T15:30:46.913Z,0.40
2019-03-09T15:35:51.364Z,0.80
2019-03-09T15:40:55.897Z,0.40
2019-03-09T15:46:00.743Z,0.47
2019-03-09T15:51:05.362Z,0.40
2019-03-09T15:56:10.223Z,0.30
2019-03-09T16:01:14.970Z,0.30
2019-03-09T16:06:19.622Z,0.40
2019-03-09T16:11:24.730Z,0.33
2019-03-09T16:16:29.330Z,0.30
2019-03-09T16:21:33.859Z,0.40
2019-03-09T16:26:38.727Z,0.30
2019-03-09T16:31:43.647Z,0.43
2019-03-09T16:36:48.195Z,0.30
2019-03-09T16:41:53.476Z,0.40
2019-03-09T16:46:59.291Z,0.50
2019-03-09T16:52:05.140Z,0.30
2019-03-09T16:57:12.443Z,0.60
2019-03-09T17:02:27.593Z,0.37
2019-03-09T17:07:26.491Z,0.30
2019-03-09T17:12:32.574Z,0.40
2019-03-09T17:17:37.044Z,0.30
2019-03-09T17:22:43.816Z,0.40
2019-03-09T17:27:49.148Z,0.40
2019-03-09T17:32:54.083Z,0.37
2019-03-09T17:37:58.824Z,0.40
2019-03-09T17:43:03.776Z,0.40
2019-03-09T17:48:08.520Z,0.30
2019-03-09T17:53:14.049Z,0.43
2019-03-09T17:58:18.926Z,0.37
2019-03-09T18:03:23.527Z,0.40
2019-03-09T18:08:28.144Z,0.40
2019-03-09T18:13:34.157Z,0.37
2019-03-09T18:18:39.198Z,0.53
2019-03-09T18:23:46.913Z,0.50
2019-03-09T18:28:51.415Z,0.40
2019-03-09T18:33:56.551Z,0.40
2019-03-09T18:39:02.262Z,0.33
2019-03-09T18:44:07.472Z,0.40
2019-03-09T18:49:12.293Z,0.73
2019-03-09T18:54:17.176Z,0.30
2019-03-09T18:59:26.821Z,0.40
2019-03-09T19:04:32.226Z,0.53
2019-03-09T19:09:36.961Z,0.40
2019-03-09T19:14:43.137Z,0.50
2019-03-09T19:19:47.909Z,0.50
2019-03-09T19:24:53.077Z,0.60
2019-03-09T19:29:58.298Z,0.50
2019-03-09T19:35:03.284Z,0.50
2019-03-09T19:40:10.505Z,0.67
2019-03-09T19:45:16.009Z,0.80
2019-03-09T19:50:20.898Z,0.30
2019-03-09T19:55:27.153Z,0.40
2019-03-09T20:00:33.011Z,0.40
2019-03-09T20:05:38.113Z,0.40
2019-03-09T20:10:43.317Z,0.40
2019-03-09T20:15:48.360Z,0.50
2019-03-09T20:20:53.054Z,0.60
2019-03-09T20:25:57.868Z,0.47
2019-03-09T20:31:03.050Z,0.40
2019-03-09T20:36:08.561Z,0.30
2019-03-09T20:41:13.334Z,0.50
2019-03-09T20:46:18.153Z,0.57
2019-03-09T20:51:25.200Z,0.53
2019-03-09T20:56:30.705Z,0.50
2019-03-09T21:01:37.361Z,0.50
2019-03-09T21:06:44.187Z,0.53
2019-03-09T21:11:49.737Z,0.53
2019-03-09T21:16:59.600Z,0.40
2019-03-09T21:22:04.867Z,0.47
2019-03-09T21:27:10.037Z,0.50
2019-03-09T21:32:15.033Z,0.60
2019-03-09T21:37:19.805Z,0.60
2019-03-09T21:42:24.857Z,0.50
2019-03-09T21:47:29.863Z,0.50
2019-03-09T21:52:34.213Z,0.47
2019-03-09T21:57:39.644Z,0.70
2019-03-09T22:02:44.927Z,0.70
2019-03-09T22:07:49.296Z,0.60
2019-03-09T22:12:54.290Z,0.80
2019-03-09T22:17:59.120Z,0.63
2019-03-09T22:23:06.878Z,0.77
2019-03-09T22:28:14.609Z,0.70
2019-03-09T22:33:19.533Z,0.70
2019-03-09T22:38:24.160Z,0.90
2019-03-09T22:43:29.012Z,0.70
2019-03-09T22:48:34.230Z,0.80
2019-03-09T22:53:39.486Z,0.63
2019-03-09T22:58:43.804Z,0.93
2019-03-09T23:03:48.223Z,0.70
2019-03-09T23:08:52.731Z,0.80
2019-03-09T23:13:57.789Z,0.73
2019-03-09T23:19:02.200Z,0.77
2019-03-09T23:24:07.087Z,0.80
2019-03-09T23:29:12.122Z,0.70
2019-03-09T23:34:17.432Z,0.83
2019-03-09T23:39:24.963Z,0.80
2019-03-09T23:44:29.682Z,0.77
2019-03-09T23:49:34.991Z,0.80
2019-03-09T23:54:40.481Z,0.47
2019-03-09T23:59:45.223Z,0.97
